Main page
METAR-TAF:

METAR-TAF

Airports :

Bad Vöslau, Austria

Bad Vöslau Airport

latitude: 47-57-52N, longitude: 016-15-34E, elevation: 233 m

Current weather observation

The report was made 13 hours and 26 minutes ago, at 15:00 UTC
Wind 7 kt from the West/Northwest
Temperature 5°C
Humidity 65%
Pressure

METAR: LOAV 171500Z 30007KT 25KM FEW020CU BKN040SC 05/M01

Time: 05:26 (04:26 UTC)

Forecast

The report was made 17 hours and 1 minutes ago, at 11:25 UTC
Forecast valid from 17 at 12 UTC to 17 at 21 UTC
Wind 6 kt from the West/Northwest
Visibility 10 km or more
Few clouds at a height of 2000 ft
Broken clouds at a height of 3000 ft
Probability 30% :
Temporary
from 17 at 12 UTC to 17 at 15 UTC
Wind 15 kt from the Northwest with gusts up to 25 kt

TAF: LOAV 171125Z 1712/1721 30006KT 9999 FEW020 BKN030 PROB30 TEMPO 1712/1715 32015G25KT

Weather observations and forecasts of more than 4000 airports (METAR and TAF reports).

The available stations are represented by yellow and red dots on the map.

Hover mouse over dot to see the name of the station.

Then click to see weather observations and forecasts.

To change the map : click on the green buttons with a black cross to zoom in, on the green button with a dash to zoom out, or on the green arrows for adjacent maps.


METAR-TAF: